sensor_id;sensor_type;location;lat;lon;timestamp;P1;durP1;ratioP1;P2;durP2;ratioP2
18142;SDS011;9197;50.930;3.140;2022-09-17T00:01:37;6.73;;;2.13;;
18142;SDS011;9197;50.930;3.140;2022-09-17T00:04:04;6.87;;;1.70;;
18142;SDS011;9197;50.930;3.140;2022-09-17T00:06:32;7.67;;;2.13;;
18142;SDS011;9197;50.930;3.140;2022-09-17T00:09:00;10.10;;;2.43;;
18142;SDS011;9197;50.930;3.140;2022-09-17T00:11:28;8.83;;;2.27;;
18142;SDS011;9197;50.930;3.140;2022-09-17T00:13:56;8.13;;;1.70;;
18142;SDS011;9197;50.930;3.140;2022-09-17T00:16:26;10.13;;;2.03;;
18142;SDS011;9197;50.930;3.140;2022-09-17T00:18:54;9.47;;;2.13;;
18142;SDS011;9197;50.930;3.140;2022-09-17T00:21:22;9.23;;;2.30;;
18142;SDS011;9197;50.930;3.140;2022-09-17T00:23:52;12.70;;;2.40;;
18142;SDS011;9197;50.930;3.140;2022-09-17T00:26:19;11.23;;;2.33;;
18142;SDS011;9197;50.930;3.140;2022-09-17T00:28:47;8.67;;;2.00;;
18142;SDS011;9197;50.930;3.140;2022-09-17T00:31:15;10.47;;;1.50;;
18142;SDS011;9197;50.930;3.140;2022-09-17T00:33:43;7.20;;;2.20;;
18142;SDS011;9197;50.930;3.140;2022-09-17T00:36:10;4.87;;;2.00;;
18142;SDS011;9197;50.930;3.140;2022-09-17T00:38:37;10.27;;;2.37;;
18142;SDS011;9197;50.930;3.140;2022-09-17T00:41:05;11.27;;;2.77;;
18142;SDS011;9197;50.930;3.140;2022-09-17T00:43:34;14.83;;;2.90;;
18142;SDS011;9197;50.930;3.140;2022-09-17T00:46:01;13.57;;;1.70;;
18142;SDS011;9197;50.930;3.140;2022-09-17T00:48:29;16.20;;;3.07;;
18142;SDS011;9197;50.930;3.140;2022-09-17T00:50:58;17.20;;;3.13;;
18142;SDS011;9197;50.930;3.140;2022-09-17T00:53:26;13.33;;;2.50;;
18142;SDS011;9197;50.930;3.140;2022-09-17T00:55:56;15.27;;;2.50;;
18142;SDS011;9197;50.930;3.140;2022-09-17T00:58:23;18.00;;;3.90;;
18142;SDS011;9197;50.930;3.140;2022-09-17T01:00:51;20.07;;;2.87;;
18142;SDS011;9197;50.930;3.140;2022-09-17T01:03:19;22.27;;;3.67;;
18142;SDS011;9197;50.930;3.140;2022-09-17T01:05:47;18.67;;;4.13;;
18142;SDS011;9197;50.930;3.140;2022-09-17T01:08:19;24.33;;;4.47;;
18142;SDS011;9197;50.930;3.140;2022-09-17T01:10:53;17.13;;;3.13;;
18142;SDS011;9197;50.930;3.140;2022-09-17T01:13:27;11.07;;;3.13;;
18142;SDS011;9197;50.930;3.140;2022-09-17T01:15:59;18.77;;;3.73;;
18142;SDS011;9197;50.930;3.140;2022-09-17T01:18:31;21.13;;;3.57;;
18142;SDS011;9197;50.930;3.140;2022-09-17T01:21:13;16.57;;;3.20;;
18142;SDS011;9197;50.930;3.140;2022-09-17T01:23:57;14.33;;;3.53;;
18142;SDS011;9197;50.930;3.140;2022-09-17T01:26:33;16.67;;;2.90;;
18142;SDS011;9197;50.930;3.140;2022-09-17T01:29:08;15.33;;;3.27;;
18142;SDS011;9197;50.930;3.140;2022-09-17T01:31:41;7.37;;;2.73;;
18142;SDS011;9197;50.930;3.140;2022-09-17T01:34:13;11.90;;;2.80;;
18142;SDS011;9197;50.930;3.140;2022-09-17T01:36:48;23.13;;;3.20;;
18142;SDS011;9197;50.930;3.140;2022-09-17T01:39:23;12.70;;;3.23;;
18142;SDS011;9197;50.930;3.140;2022-09-17T01:41:55;12.47;;;2.87;;
18142;SDS011;9197;50.930;3.140;2022-09-17T01:44:25;10.60;;;2.33;;
18142;SDS011;9197;50.930;3.140;2022-09-17T01:46:57;13.00;;;3.77;;
18142;SDS011;9197;50.930;3.140;2022-09-17T01:49:29;8.07;;;2.23;;
18142;SDS011;9197;50.930;3.140;2022-09-17T01:51:57;11.37;;;2.37;;
18142;SDS011;9197;50.930;3.140;2022-09-17T01:54:27;7.87;;;2.63;;
18142;SDS011;9197;50.930;3.140;2022-09-17T01:56:56;11.13;;;3.00;;
18142;SDS011;9197;50.930;3.140;2022-09-17T01:59:26;14.33;;;3.87;;
18142;SDS011;9197;50.930;3.140;2022-09-17T02:01:56;12.50;;;2.13;;
18142;SDS011;9197;50.930;3.140;2022-09-17T02:04:27;11.93;;;2.90;;
18142;SDS011;9197;50.930;3.140;2022-09-17T02:06:57;14.53;;;3.40;;
18142;SDS011;9197;50.930;3.140;2022-09-17T02:09:26;12.83;;;3.30;;
18142;SDS011;9197;50.930;3.140;2022-09-17T02:11:56;14.80;;;3.57;;
18142;SDS011;9197;50.930;3.140;2022-09-17T02:14:26;10.97;;;2.33;;
18142;SDS011;9197;50.930;3.140;2022-09-17T02:16:56;12.07;;;2.80;;
18142;SDS011;9197;50.930;3.140;2022-09-17T02:19:29;15.77;;;3.27;;
18142;SDS011;9197;50.930;3.140;2022-09-17T02:21:59;17.07;;;4.43;;
18142;SDS011;9197;50.930;3.140;2022-09-17T02:24:29;15.33;;;3.77;;
18142;SDS011;9197;50.930;3.140;2022-09-17T02:26:59;10.10;;;2.60;;
18142;SDS011;9197;50.930;3.140;2022-09-17T02:29:28;14.17;;;2.60;;
18142;SDS011;9197;50.930;3.140;2022-09-17T02:31:57;13.03;;;2.73;;
18142;SDS011;9197;50.930;3.140;2022-09-17T02:34:24;10.13;;;3.03;;
18142;SDS011;9197;50.930;3.140;2022-09-17T02:36:55;14.00;;;2.80;;
18142;SDS011;9197;50.930;3.140;2022-09-17T02:39:22;9.83;;;2.90;;
18142;SDS011;9197;50.930;3.140;2022-09-17T02:41:51;13.30;;;2.60;;
18142;SDS011;9197;50.930;3.140;2022-09-17T02:44:21;17.20;;;3.10;;
18142;SDS011;9197;50.930;3.140;2022-09-17T02:49:41;9.83;;;2.27;;
18142;SDS011;9197;50.930;3.140;2022-09-17T02:52:14;10.20;;;2.13;;
18142;SDS011;9197;50.930;3.140;2022-09-17T02:54:45;15.80;;;2.60;;
18142;SDS011;9197;50.930;3.140;2022-09-17T02:57:19;14.43;;;2.97;;
18142;SDS011;9197;50.930;3.140;2022-09-17T02:59:51;12.27;;;2.30;;
18142;SDS011;9197;50.930;3.140;2022-09-17T03:02:19;13.90;;;3.43;;
18142;SDS011;9197;50.930;3.140;2022-09-17T03:04:48;8.17;;;2.40;;
18142;SDS011;9197;50.930;3.140;2022-09-17T03:07:17;12.20;;;2.70;;
18142;SDS011;9197;50.930;3.140;2022-09-17T03:09:45;13.23;;;2.13;;
18142;SDS011;9197;50.930;3.140;2022-09-17T03:12:13;6.30;;;2.00;;
18142;SDS011;9197;50.930;3.140;2022-09-17T03:14:40;9.37;;;2.87;;
18142;SDS011;9197;50.930;3.140;2022-09-17T03:17:07;11.03;;;2.00;;
18142;SDS011;9197;50.930;3.140;2022-09-17T03:19:36;10.77;;;2.53;;
18142;SDS011;9197;50.930;3.140;2022-09-17T03:22:03;14.50;;;2.93;;
18142;SDS011;9197;50.930;3.140;2022-09-17T03:24:32;7.57;;;2.40;;
18142;SDS011;9197;50.930;3.140;2022-09-17T03:26:59;10.13;;;2.53;;
18142;SDS011;9197;50.930;3.140;2022-09-17T03:29:26;7.60;;;2.00;;
18142;SDS011;9197;50.930;3.140;2022-09-17T03:31:53;10.10;;;1.57;;
18142;SDS011;9197;50.930;3.140;2022-09-17T03:34:20;9.53;;;1.87;;
18142;SDS011;9197;50.930;3.140;2022-09-17T03:36:48;8.73;;;1.50;;
18142;SDS011;9197;50.930;3.140;2022-09-17T03:39:15;7.53;;;1.90;;
18142;SDS011;9197;50.930;3.140;2022-09-17T03:41:43;6.03;;;2.10;;
18142;SDS011;9197;50.930;3.140;2022-09-17T03:44:10;10.53;;;2.40;;
18142;SDS011;9197;50.930;3.140;2022-09-17T03:46:39;12.20;;;2.37;;
18142;SDS011;9197;50.930;3.140;2022-09-17T03:49:06;13.03;;;2.03;;
18142;SDS011;9197;50.930;3.140;2022-09-17T03:51:33;11.23;;;2.27;;
18142;SDS011;9197;50.930;3.140;2022-09-17T03:54:01;10.20;;;2.50;;
18142;SDS011;9197;50.930;3.140;2022-09-17T03:56:28;21.10;;;4.10;;
18142;SDS011;9197;50.930;3.140;2022-09-17T03:58:57;8.57;;;3.00;;
18142;SDS011;9197;50.930;3.140;2022-09-17T04:01:24;8.20;;;2.50;;
18142;SDS011;9197;50.930;3.140;2022-09-17T04:03:52;10.23;;;2.10;;
18142;SDS011;9197;50.930;3.140;2022-09-17T04:06:19;6.63;;;1.87;;
18142;SDS011;9197;50.930;3.140;2022-09-17T04:08:46;6.93;;;2.00;;
18142;SDS011;9197;50.930;3.140;2022-09-17T04:11:13;3.80;;;1.40;;
18142;SDS011;9197;50.930;3.140;2022-09-17T04:13:40;3.53;;;1.27;;
18142;SDS011;9197;50.930;3.140;2022-09-17T04:16:09;1.60;;;0.70;;
18142;SDS011;9197;50.930;3.140;2022-09-17T04:18:36;1.97;;;0.73;;
18142;SDS011;9197;50.930;3.140;2022-09-17T04:21:04;3.63;;;0.90;;
18142;SDS011;9197;50.930;3.140;2022-09-17T04:23:31;2.40;;;0.87;;
18142;SDS011;9197;50.930;3.140;2022-09-17T04:25:58;9.13;;;1.57;;
18142;SDS011;9197;50.930;3.140;2022-09-17T04:28:25;4.77;;;1.00;;
18142;SDS011;9197;50.930;3.140;2022-09-17T04:30:52;5.37;;;1.53;;
18142;SDS011;9197;50.930;3.140;2022-09-17T04:33:21;7.60;;;1.80;;
18142;SDS011;9197;50.930;3.140;2022-09-17T04:35:48;4.93;;;1.27;;
18142;SDS011;9197;50.930;3.140;2022-09-17T04:38:15;6.17;;;1.37;;
18142;SDS011;9197;50.930;3.140;2022-09-17T04:40:44;7.93;;;1.40;;
18142;SDS011;9197;50.930;3.140;2022-09-17T04:43:12;5.63;;;1.10;;
18142;SDS011;9197;50.930;3.140;2022-09-17T04:45:39;5.40;;;1.40;;
18142;SDS011;9197;50.930;3.140;2022-09-17T04:48:06;3.60;;;1.10;;
18142;SDS011;9197;50.930;3.140;2022-09-17T04:50:35;4.83;;;1.30;;
18142;SDS011;9197;50.930;3.140;2022-09-17T04:53:02;5.40;;;2.20;;
18142;SDS011;9197;50.930;3.140;2022-09-17T04:55:29;3.53;;;1.50;;
18142;SDS011;9197;50.930;3.140;2022-09-17T04:57:56;6.80;;;2.03;;
18142;SDS011;9197;50.930;3.140;2022-09-17T05:00:23;5.37;;;1.60;;
18142;SDS011;9197;50.930;3.140;2022-09-17T05:02:51;7.37;;;1.83;;
18142;SDS011;9197;50.930;3.140;2022-09-17T05:05:19;8.93;;;2.40;;
18142;SDS011;9197;50.930;3.140;2022-09-17T05:07:47;7.53;;;1.90;;
18142;SDS011;9197;50.930;3.140;2022-09-17T05:10:15;7.37;;;2.43;;
18142;SDS011;9197;50.930;3.140;2022-09-17T05:12:46;10.80;;;2.93;;
18142;SDS011;9197;50.930;3.140;2022-09-17T05:15:13;11.17;;;2.20;;
18142;SDS011;9197;50.930;3.140;2022-09-17T05:17:41;17.03;;;2.30;;
18142;SDS011;9197;50.930;3.140;2022-09-17T05:20:08;8.00;;;2.93;;
18142;SDS011;9197;50.930;3.140;2022-09-17T05:22:39;9.57;;;2.40;;
18142;SDS011;9197;50.930;3.140;2022-09-17T05:25:08;14.00;;;3.37;;
18142;SDS011;9197;50.930;3.140;2022-09-17T05:27:35;9.03;;;2.43;;
18142;SDS011;9197;50.930;3.140;2022-09-17T05:30:02;13.27;;;2.40;;
18142;SDS011;9197;50.930;3.140;2022-09-17T05:32:30;11.70;;;2.70;;
18142;SDS011;9197;50.930;3.140;2022-09-17T05:34:57;9.60;;;2.30;;
18142;SDS011;9197;50.930;3.140;2022-09-17T05:37:24;6.90;;;2.20;;
18142;SDS011;9197;50.930;3.140;2022-09-17T05:39:51;8.80;;;2.03;;
18142;SDS011;9197;50.930;3.140;2022-09-17T05:42:20;7.30;;;2.00;;
18142;SDS011;9197;50.930;3.140;2022-09-17T05:44:47;8.53;;;2.67;;
18142;SDS011;9197;50.930;3.140;2022-09-17T05:47:14;9.87;;;2.20;;
18142;SDS011;9197;50.930;3.140;2022-09-17T05:49:42;6.90;;;2.73;;
18142;SDS011;9197;50.930;3.140;2022-09-17T05:52:09;12.70;;;3.20;;
18142;SDS011;9197;50.930;3.140;2022-09-17T05:54:36;9.80;;;2.10;;
18142;SDS011;9197;50.930;3.140;2022-09-17T05:57:03;13.20;;;2.77;;
18142;SDS011;9197;50.930;3.140;2022-09-17T05:59:32;9.13;;;2.50;;
18142;SDS011;9197;50.930;3.140;2022-09-17T06:02:00;6.60;;;1.93;;
18142;SDS011;9197;50.930;3.140;2022-09-17T06:04:27;11.17;;;2.00;;
18142;SDS011;9197;50.930;3.140;2022-09-17T06:06:55;9.93;;;2.03;;
18142;SDS011;9197;50.930;3.140;2022-09-17T06:09:22;11.57;;;2.30;;
18142;SDS011;9197;50.930;3.140;2022-09-17T06:11:49;10.23;;;1.77;;
18142;SDS011;9197;50.930;3.140;2022-09-17T06:14:17;8.67;;;2.23;;
18142;SDS011;9197;50.930;3.140;2022-09-17T06:16:45;11.67;;;2.10;;
18142;SDS011;9197;50.930;3.140;2022-09-17T06:19:13;8.63;;;2.40;;
18142;SDS011;9197;50.930;3.140;2022-09-17T06:21:40;7.13;;;1.60;;
18142;SDS011;9197;50.930;3.140;2022-09-17T06:24:07;11.37;;;2.37;;
18142;SDS011;9197;50.930;3.140;2022-09-17T06:26:35;10.37;;;2.47;;
18142;SDS011;9197;50.930;3.140;2022-09-17T06:29:02;8.53;;;2.63;;
18142;SDS011;9197;50.930;3.140;2022-09-17T06:31:29;9.03;;;1.97;;
18142;SDS011;9197;50.930;3.140;2022-09-17T06:33:58;7.57;;;1.50;;
18142;SDS011;9197;50.930;3.140;2022-09-17T06:36:26;13.20;;;2.43;;
18142;SDS011;9197;50.930;3.140;2022-09-17T06:38:53;9.73;;;2.47;;
18142;SDS011;9197;50.930;3.140;2022-09-17T06:41:20;6.00;;;1.77;;
18142;SDS011;9197;50.930;3.140;2022-09-17T06:43:47;7.13;;;1.80;;
18142;SDS011;9197;50.930;3.140;2022-09-17T06:46:14;12.10;;;2.57;;
18142;SDS011;9197;50.930;3.140;2022-09-17T06:48:41;8.87;;;3.17;;
18142;SDS011;9197;50.930;3.140;2022-09-17T06:51:10;11.30;;;2.03;;
18142;SDS011;9197;50.930;3.140;2022-09-17T06:53:38;8.77;;;2.43;;
18142;SDS011;9197;50.930;3.140;2022-09-17T06:56:06;9.00;;;2.70;;
18142;SDS011;9197;50.930;3.140;2022-09-17T06:58:33;6.50;;;2.10;;
18142;SDS011;9197;50.930;3.140;2022-09-17T07:01:02;7.03;;;1.83;;
18142;SDS011;9197;50.930;3.140;2022-09-17T07:03:30;10.23;;;2.10;;
18142;SDS011;9197;50.930;3.140;2022-09-17T07:05:57;5.87;;;2.07;;
18142;SDS011;9197;50.930;3.140;2022-09-17T07:08:26;10.30;;;2.60;;
18142;SDS011;9197;50.930;3.140;2022-09-17T07:10:53;4.20;;;1.60;;
18142;SDS011;9197;50.930;3.140;2022-09-17T07:13:21;10.25;;;2.60;;
18142;SDS011;9197;50.930;3.140;2022-09-17T07:15:52;6.60;;;1.70;;
18142;SDS011;9197;50.930;3.140;2022-09-17T07:18:19;5.55;;;1.98;;
18142;SDS011;9197;50.930;3.140;2022-09-17T07:20:51;3.55;;;1.67;;
18142;SDS011;9197;50.930;3.140;2022-09-17T07:23:18;5.60;;;1.70;;
18142;SDS011;9197;50.930;3.140;2022-09-17T07:25:51;5.47;;;1.80;;
18142;SDS011;9197;50.930;3.140;2022-09-17T07:28:18;5.22;;;2.22;;
18142;SDS011;9197;50.930;3.140;2022-09-17T07:30:45;7.40;;;2.40;;
18142;SDS011;9197;50.930;3.140;2022-09-17T07:33:14;8.38;;;2.45;;
18142;SDS011;9197;50.930;3.140;2022-09-17T07:35:41;10.70;;;2.40;;
18142;SDS011;9197;50.930;3.140;2022-09-17T07:38:09;5.70;;;1.55;;
18142;SDS011;9197;50.930;3.140;2022-09-17T07:40:36;6.55;;;2.05;;
18142;SDS011;9197;50.930;3.140;2022-09-17T07:43:04;8.13;;;1.95;;
18142;SDS011;9197;50.930;3.140;2022-09-17T07:45:33;5.75;;;1.88;;
18142;SDS011;9197;50.930;3.140;2022-09-17T07:48:00;5.38;;;2.13;;
18142;SDS011;9197;50.930;3.140;2022-09-17T07:50:27;5.35;;;2.10;;
18142;SDS011;9197;50.930;3.140;2022-09-17T07:52:55;5.38;;;1.63;;
18142;SDS011;9197;50.930;3.140;2022-09-17T07:55:23;5.43;;;2.25;;
18142;SDS011;9197;50.930;3.140;2022-09-17T07:57:51;3.13;;;1.42;;
18142;SDS011;9197;50.930;3.140;2022-09-17T08:00:19;7.68;;;1.67;;
18142;SDS011;9197;50.930;3.140;2022-09-17T08:02:51;8.38;;;2.10;;
18142;SDS011;9197;50.930;3.140;2022-09-17T08:05:18;6.40;;;2.42;;
18142;SDS011;9197;50.930;3.140;2022-09-17T08:07:48;4.72;;;1.90;;
18142;SDS011;9197;50.930;3.140;2022-09-17T08:10:15;4.82;;;1.30;;
18142;SDS011;9197;50.930;3.140;2022-09-17T08:12:45;6.55;;;1.67;;
18142;SDS011;9197;50.930;3.140;2022-09-17T08:15:16;4.55;;;1.70;;
18142;SDS011;9197;50.930;3.140;2022-09-17T08:17:45;5.72;;;1.27;;
18142;SDS011;9197;50.930;3.140;2022-09-17T08:20:12;4.80;;;1.48;;
18142;SDS011;9197;50.930;3.140;2022-09-17T08:22:40;4.00;;;1.45;;
18142;SDS011;9197;50.930;3.140;2022-09-17T08:25:08;4.68;;;1.70;;
18142;SDS011;9197;50.930;3.140;2022-09-17T08:27:36;3.47;;;1.55;;
18142;SDS011;9197;50.930;3.140;2022-09-17T08:30:04;7.15;;;1.63;;
18142;SDS011;9197;50.930;3.140;2022-09-17T08:32:31;4.82;;;1.45;;
18142;SDS011;9197;50.930;3.140;2022-09-17T08:35:00;3.08;;;1.33;;
18142;SDS011;9197;50.930;3.140;2022-09-17T08:37:27;3.63;;;1.40;;
18142;SDS011;9197;50.930;3.140;2022-09-17T08:39:55;3.00;;;1.02;;
18142;SDS011;9197;50.930;3.140;2022-09-17T08:42:24;5.35;;;1.42;;
18142;SDS011;9197;50.930;3.140;2022-09-17T08:44:54;4.75;;;1.30;;
18142;SDS011;9197;50.930;3.140;2022-09-17T08:47:22;4.15;;;2.00;;
18142;SDS011;9197;50.930;3.140;2022-09-17T08:49:51;2.58;;;1.08;;
18142;SDS011;9197;50.930;3.140;2022-09-17T08:55:11;4.63;;;1.80;;
18142;SDS011;9197;50.930;3.140;2022-09-17T08:57:42;4.82;;;1.70;;
18142;SDS011;9197;50.930;3.140;2022-09-17T09:00:12;4.45;;;1.58;;
18142;SDS011;9197;50.930;3.140;2022-09-17T09:02:49;7.57;;;2.03;;
18142;SDS011;9197;50.930;3.140;2022-09-17T09:05:18;4.60;;;1.50;;
18142;SDS011;9197;50.930;3.140;2022-09-17T09:07:48;9.60;;;1.93;;
18142;SDS011;9197;50.930;3.140;2022-09-17T09:10:19;5.67;;;2.03;;
18142;SDS011;9197;50.930;3.140;2022-09-17T09:12:47;8.17;;;1.60;;
18142;SDS011;9197;50.930;3.140;2022-09-17T09:15:17;3.67;;;1.10;;
18142;SDS011;9197;50.930;3.140;2022-09-17T09:17:47;4.90;;;2.40;;
18142;SDS011;9197;50.930;3.140;2022-09-17T09:20:16;6.97;;;1.90;;
18142;SDS011;9197;50.930;3.140;2022-09-17T09:22:45;8.37;;;2.50;;
18142;SDS011;9197;50.930;3.140;2022-09-17T09:25:19;3.38;;;1.70;;
18142;SDS011;9197;50.930;3.140;2022-09-17T09:27:51;4.65;;;1.40;;
18142;SDS011;9197;50.930;3.140;2022-09-17T09:30:21;7.15;;;1.67;;
18142;SDS011;9197;50.930;3.140;2022-09-17T09:32:52;10.48;;;2.03;;
18142;SDS011;9197;50.930;3.140;2022-09-17T09:35:22;7.15;;;1.67;;
18142;SDS011;9197;50.930;3.140;2022-09-17T09:37:53;3.70;;;1.15;;
18142;SDS011;9197;50.930;3.140;2022-09-17T09:40:25;6.95;;;1.15;;
18142;SDS011;9197;50.930;3.140;2022-09-17T09:42:54;5.13;;;1.60;;
18142;SDS011;9197;50.930;3.140;2022-09-17T09:45:25;6.47;;;1.65;;
18142;SDS011;9197;50.930;3.140;2022-09-17T09:47:55;8.82;;;1.83;;
18142;SDS011;9197;50.930;3.140;2022-09-17T09:50:28;3.95;;;0.93;;
18142;SDS011;9197;50.930;3.140;2022-09-17T09:53:02;6.35;;;1.63;;
18142;SDS011;9197;50.930;3.140;2022-09-17T09:55:36;6.13;;;1.90;;
18142;SDS011;9197;50.930;3.140;2022-09-17T09:58:10;4.87;;;1.40;;
18142;SDS011;9197;50.930;3.140;2022-09-17T10:00:39;4.90;;;1.37;;
18142;SDS011;9197;50.930;3.140;2022-09-17T10:03:09;5.63;;;1.30;;
18142;SDS011;9197;50.930;3.140;2022-09-17T10:05:37;7.57;;;1.20;;
18142;SDS011;9197;50.930;3.140;2022-09-17T10:08:10;8.57;;;1.53;;
18142;SDS011;9197;50.930;3.140;2022-09-17T10:10:39;8.40;;;1.70;;
18142;SDS011;9197;50.930;3.140;2022-09-17T10:13:19;5.67;;;1.47;;
18142;SDS011;9197;50.930;3.140;2022-09-17T10:15:46;4.07;;;1.60;;
18142;SDS011;9197;50.930;3.140;2022-09-17T10:18:17;7.93;;;1.53;;
18142;SDS011;9197;50.930;3.140;2022-09-17T10:20:48;7.10;;;1.30;;
18142;SDS011;9197;50.930;3.140;2022-09-17T10:23:15;7.13;;;2.23;;
18142;SDS011;9197;50.930;3.140;2022-09-17T10:25:44;10.60;;;2.37;;
18142;SDS011;9197;50.930;3.140;2022-09-17T10:30:54;7.23;;;1.60;;
18142;SDS011;9197;50.930;3.140;2022-09-17T10:33:22;7.57;;;2.07;;
18142;SDS011;9197;50.930;3.140;2022-09-17T10:35:58;4.40;;;1.50;;
18142;SDS011;9197;50.930;3.140;2022-09-17T10:38:33;8.37;;;1.63;;
18142;SDS011;9197;50.930;3.140;2022-09-17T10:41:12;7.77;;;1.57;;
18142;SDS011;9197;50.930;3.140;2022-09-17T10:43:40;6.87;;;1.60;;
18142;SDS011;9197;50.930;3.140;2022-09-17T10:46:08;8.30;;;2.07;;
18142;SDS011;9197;50.930;3.140;2022-09-17T10:48:38;6.33;;;1.90;;
18142;SDS011;9197;50.930;3.140;2022-09-17T10:51:06;3.70;;;1.47;;
18142;SDS011;9197;50.930;3.140;2022-09-17T10:53:36;5.17;;;1.50;;
18142;SDS011;9197;50.930;3.140;2022-09-17T10:56:08;4.27;;;1.57;;
18142;SDS011;9197;50.930;3.140;2022-09-17T10:58:46;5.67;;;1.00;;
18142;SDS011;9197;50.930;3.140;2022-09-17T11:01:20;7.77;;;1.57;;
18142;SDS011;9197;50.930;3.140;2022-09-17T11:06:40;5.70;;;1.30;;
18142;SDS011;9197;50.930;3.140;2022-09-17T11:09:15;3.03;;;1.00;;
18142;SDS011;9197;50.930;3.140;2022-09-17T11:11:47;6.30;;;1.50;;
18142;SDS011;9197;50.930;3.140;2022-09-17T11:14:22;5.63;;;1.70;;
18142;SDS011;9197;50.930;3.140;2022-09-17T11:16:59;5.43;;;1.70;;
18142;SDS011;9197;50.930;3.140;2022-09-17T11:19:30;2.33;;;1.10;;
18142;SDS011;9197;50.930;3.140;2022-09-17T11:22:01;5.33;;;1.30;;
18142;SDS011;9197;50.930;3.140;2022-09-17T11:24:35;5.88;;;1.63;;
18142;SDS011;9197;50.930;3.140;2022-09-17T11:27:15;3.77;;;1.00;;
18142;SDS011;9197;50.930;3.140;2022-09-17T11:29:52;4.97;;;1.47;;
18142;SDS011;9197;50.930;3.140;2022-09-17T11:32:28;8.37;;;1.27;;
18142;SDS011;9197;50.930;3.140;2022-09-17T11:35:01;4.78;;;1.27;;
18142;SDS011;9197;50.930;3.140;2022-09-17T11:37:30;6.07;;;1.60;;
18142;SDS011;9197;50.930;3.140;2022-09-17T11:40:01;6.30;;;1.33;;
18142;SDS011;9197;50.930;3.140;2022-09-17T11:42:30;9.13;;;1.73;;
18142;SDS011;9197;50.930;3.140;2022-09-17T11:45:00;6.82;;;1.75;;
18142;SDS011;9197;50.930;3.140;2022-09-17T11:47:29;8.90;;;1.67;;
18142;SDS011;9197;50.930;3.140;2022-09-17T11:49:58;6.10;;;1.40;;
18142;SDS011;9197;50.930;3.140;2022-09-17T11:52:27;8.37;;;1.37;;
18142;SDS011;9197;50.930;3.140;2022-09-17T11:54:58;6.73;;;1.73;;
18142;SDS011;9197;50.930;3.140;2022-09-17T11:57:28;5.53;;;1.73;;
18142;SDS011;9197;50.930;3.140;2022-09-17T11:59:58;7.77;;;1.70;;
18142;SDS011;9197;50.930;3.140;2022-09-17T12:02:34;6.93;;;1.33;;
18142;SDS011;9197;50.930;3.140;2022-09-17T12:05:08;3.27;;;1.17;;
18142;SDS011;9197;50.930;3.140;2022-09-17T12:07:38;5.30;;;1.67;;
18142;SDS011;9197;50.930;3.140;2022-09-17T12:10:28;5.13;;;1.30;;
18142;SDS011;9197;50.930;3.140;2022-09-17T12:12:58;4.77;;;2.13;;
18142;SDS011;9197;50.930;3.140;2022-09-17T12:15:28;4.73;;;1.30;;
18142;SDS011;9197;50.930;3.140;2022-09-17T12:20:43;4.40;;;1.50;;
18142;SDS011;9197;50.930;3.140;2022-09-17T12:23:12;5.10;;;1.50;;
18142;SDS011;9197;50.930;3.140;2022-09-17T12:25:43;3.83;;;1.20;;
18142;SDS011;9197;50.930;3.140;2022-09-17T12:28:13;4.07;;;1.20;;
18142;SDS011;9197;50.930;3.140;2022-09-17T12:30:42;7.07;;;1.67;;
18142;SDS011;9197;50.930;3.140;2022-09-17T12:33:15;7.13;;;1.57;;
18142;SDS011;9197;50.930;3.140;2022-09-17T12:35:55;6.53;;;1.43;;
18142;SDS011;9197;50.930;3.140;2022-09-17T12:38:30;8.73;;;2.07;;
18142;SDS011;9197;50.930;3.140;2022-09-17T12:41:07;10.43;;;2.47;;
18142;SDS011;9197;50.930;3.140;2022-09-17T12:43:39;5.67;;;2.20;;
18142;SDS011;9197;50.930;3.140;2022-09-17T12:46:12;6.63;;;2.37;;
18142;SDS011;9197;50.930;3.140;2022-09-17T12:48:56;7.33;;;1.77;;
18142;SDS011;9197;50.930;3.140;2022-09-17T12:54:15;6.50;;;2.20;;
18142;SDS011;9197;50.930;3.140;2022-09-17T12:56:49;5.90;;;1.23;;
18142;SDS011;9197;50.930;3.140;2022-09-17T12:59:19;8.20;;;1.77;;
18142;SDS011;9197;50.930;3.140;2022-09-17T13:01:49;6.53;;;1.80;;
18142;SDS011;9197;50.930;3.140;2022-09-17T13:04:22;8.80;;;2.77;;
18142;SDS011;9197;50.930;3.140;2022-09-17T13:06:58;4.97;;;1.70;;
18142;SDS011;9197;50.930;3.140;2022-09-17T13:12:20;4.23;;;1.50;;
18142;SDS011;9197;50.930;3.140;2022-09-17T13:14:59;3.30;;;1.17;;
18142;SDS011;9197;50.930;3.140;2022-09-17T13:17:30;6.57;;;1.10;;
18142;SDS011;9197;50.930;3.140;2022-09-17T13:19:59;3.80;;;1.13;;
18142;SDS011;9197;50.930;3.140;2022-09-17T13:22:28;10.50;;;2.20;;
18142;SDS011;9197;50.930;3.140;2022-09-17T13:25:02;5.27;;;1.27;;
18142;SDS011;9197;50.930;3.140;2022-09-17T13:27:31;2.77;;;1.20;;
18142;SDS011;9197;50.930;3.140;2022-09-17T13:29:59;5.60;;;1.80;;
18142;SDS011;9197;50.930;3.140;2022-09-17T13:32:43;6.13;;;1.73;;
18142;SDS011;9197;50.930;3.140;2022-09-17T13:37:56;3.80;;;1.03;;
18142;SDS011;9197;50.930;3.140;2022-09-17T13:40:24;6.50;;;1.17;;
18142;SDS011;9197;50.930;3.140;2022-09-17T13:42:53;5.30;;;1.30;;
18142;SDS011;9197;50.930;3.140;2022-09-17T13:45:22;7.20;;;1.60;;
18142;SDS011;9197;50.930;3.140;2022-09-17T13:47:49;3.47;;;1.33;;
18142;SDS011;9197;50.930;3.140;2022-09-17T13:50:24;6.53;;;1.57;;
18142;SDS011;9197;50.930;3.140;2022-09-17T13:52:52;4.40;;;1.13;;
18142;SDS011;9197;50.930;3.140;2022-09-17T13:55:30;2.77;;;1.00;;
18142;SDS011;9197;50.930;3.140;2022-09-17T13:58:00;5.70;;;1.50;;
18142;SDS011;9197;50.930;3.140;2022-09-17T14:08:46;8.47;;;1.50;;
18142;SDS011;9197;50.930;3.140;2022-09-17T14:13:58;3.80;;;0.93;;
18142;SDS011;9197;50.930;3.140;2022-09-17T14:16:45;4.40;;;1.87;;
18142;SDS011;9197;50.930;3.140;2022-09-17T14:19:18;2.87;;;0.90;;
18142;SDS011;9197;50.930;3.140;2022-09-17T14:21:54;4.83;;;1.40;;
18142;SDS011;9197;50.930;3.140;2022-09-17T14:24:25;4.97;;;0.90;;
18142;SDS011;9197;50.930;3.140;2022-09-17T14:26:56;8.27;;;1.30;;
18142;SDS011;9197;50.930;3.140;2022-09-17T14:29:35;3.30;;;1.23;;
18142;SDS011;9197;50.930;3.140;2022-09-17T14:32:07;2.57;;;1.77;;
18142;SDS011;9197;50.930;3.140;2022-09-17T14:34:37;5.20;;;0.93;;
18142;SDS011;9197;50.930;3.140;2022-09-17T14:37:04;6.03;;;1.50;;
18142;SDS011;9197;50.930;3.140;2022-09-17T14:39:35;4.80;;;1.20;;
18142;SDS011;9197;50.930;3.140;2022-09-17T14:42:03;6.53;;;1.60;;
18142;SDS011;9197;50.930;3.140;2022-09-17T14:44:31;7.07;;;1.70;;
18142;SDS011;9197;50.930;3.140;2022-09-17T14:47:02;4.87;;;1.37;;
18142;SDS011;9197;50.930;3.140;2022-09-17T14:49:32;6.97;;;1.60;;
18142;SDS011;9197;50.930;3.140;2022-09-17T14:52:00;6.77;;;1.47;;
18142;SDS011;9197;50.930;3.140;2022-09-17T14:54:28;2.53;;;1.07;;
18142;SDS011;9197;50.930;3.140;2022-09-17T14:56:56;4.03;;;1.30;;
18142;SDS011;9197;50.930;3.140;2022-09-17T14:59:44;7.53;;;1.53;;
18142;SDS011;9197;50.930;3.140;2022-09-17T15:02:20;5.50;;;1.30;;
18142;SDS011;9197;50.930;3.140;2022-09-17T15:04:47;8.13;;;1.63;;
18142;SDS011;9197;50.930;3.140;2022-09-17T15:07:15;2.00;;;1.10;;
18142;SDS011;9197;50.930;3.140;2022-09-17T15:09:42;6.03;;;1.20;;
18142;SDS011;9197;50.930;3.140;2022-09-17T15:12:10;2.63;;;1.00;;
18142;SDS011;9197;50.930;3.140;2022-09-17T15:14:42;6.87;;;1.40;;
18142;SDS011;9197;50.930;3.140;2022-09-17T15:17:11;4.80;;;0.97;;
18142;SDS011;9197;50.930;3.140;2022-09-17T15:19:41;4.53;;;1.33;;
18142;SDS011;9197;50.930;3.140;2022-09-17T15:22:11;3.87;;;1.73;;
18142;SDS011;9197;50.930;3.140;2022-09-17T15:24:40;5.87;;;1.33;;
18142;SDS011;9197;50.930;3.140;2022-09-17T15:27:09;5.60;;;1.70;;
18142;SDS011;9197;50.930;3.140;2022-09-17T15:29:38;8.83;;;2.30;;
18142;SDS011;9197;50.930;3.140;2022-09-17T15:32:07;4.23;;;1.60;;
18142;SDS011;9197;50.930;3.140;2022-09-17T15:34:35;6.23;;;1.60;;
18142;SDS011;9197;50.930;3.140;2022-09-17T15:37:04;6.13;;;1.40;;
18142;SDS011;9197;50.930;3.140;2022-09-17T15:39:36;3.27;;;1.50;;
18142;SDS011;9197;50.930;3.140;2022-09-17T15:42:04;3.13;;;1.00;;
18142;SDS011;9197;50.930;3.140;2022-09-17T15:44:31;5.17;;;1.30;;
18142;SDS011;9197;50.930;3.140;2022-09-17T15:52:29;2.07;;;1.13;;